sensor_id;sensor_type;location;lat;lon;timestamp;P1;durP1;ratioP1;P2;durP2;ratioP2
19965;SDS011;10144;50.874;4.762;2022-12-07T10:24:46;14.00;;;6.03;;
19965;SDS011;10144;50.874;4.762;2022-12-07T10:27:21;14.38;;;5.97;;
19965;SDS011;10144;50.874;4.762;2022-12-07T10:29:52;15.18;;;6.35;;
19965;SDS011;10144;50.874;4.762;2022-12-07T10:34:44;15.70;;;6.32;;
19965;SDS011;10144;50.874;4.762;2022-12-07T10:42:17;15.63;;;6.25;;
19965;SDS011;10144;50.874;4.762;2022-12-07T10:44:43;17.17;;;6.15;;
19965;SDS011;10144;50.874;4.762;2022-12-07T10:52:32;13.80;;;5.07;;
19965;SDS011;10144;50.874;4.762;2022-12-07T10:55:23;13.00;;;5.32;;
19965;SDS011;10144;50.874;4.762;2022-12-07T11:06:39;12.15;;;5.25;;
19965;SDS011;10144;50.874;4.762;2022-12-07T11:15:13;12.38;;;4.80;;
19965;SDS011;10144;50.874;4.762;2022-12-07T11:23:16;12.40;;;4.60;;
19965;SDS011;10144;50.874;4.762;2022-12-07T11:34:37;10.23;;;4.27;;
19965;SDS011;10144;50.874;4.762;2022-12-07T11:40:39;17.07;;;4.33;;
19965;SDS011;10144;50.874;4.762;2022-12-07T11:46:42;9.30;;;3.25;;
19965;SDS011;10144;50.874;4.762;2022-12-07T11:58:49;11.27;;;3.70;;
19965;SDS011;10144;50.874;4.762;2022-12-07T12:11:04;10.73;;;3.10;;
19965;SDS011;10144;50.874;4.762;2022-12-07T12:23:15;8.98;;;3.30;;
19965;SDS011;10144;50.874;4.762;2022-12-07T13:25:32;12.32;;;3.17;;
19965;SDS011;10144;50.874;4.762;2022-12-07T13:31:46;14.30;;;3.00;;
19965;SDS011;10144;50.874;4.762;2022-12-07T13:37:43;6.88;;;3.05;;
19965;SDS011;10144;50.874;4.762;2022-12-07T13:43:42;16.58;;;3.40;;
19965;SDS011;10144;50.874;4.762;2022-12-07T13:49:53;10.20;;;3.10;;
19965;SDS011;10144;50.874;4.762;2022-12-07T13:52:29;8.67;;;3.20;;
19965;SDS011;10144;50.874;4.762;2022-12-07T13:57:38;8.73;;;3.00;;
19965;SDS011;10144;50.874;4.762;2022-12-07T14:00:06;9.17;;;3.40;;
19965;SDS011;10144;50.874;4.762;2022-12-07T14:03:00;9.07;;;3.37;;
19965;SDS011;10144;50.874;4.762;2022-12-07T14:05:33;9.27;;;2.90;;
19965;SDS011;10144;50.874;4.762;2022-12-07T14:08:01;8.50;;;2.83;;
19965;SDS011;10144;50.874;4.762;2022-12-07T14:12:59;7.67;;;2.87;;
19965;SDS011;10144;50.874;4.762;2022-12-07T14:15:28;13.50;;;3.47;;
19965;SDS011;10144;50.874;4.762;2022-12-07T14:17:55;11.80;;;2.90;;
19965;SDS011;10144;50.874;4.762;2022-12-07T14:20:31;6.83;;;3.20;;
19965;SDS011;10144;50.874;4.762;2022-12-07T14:23:00;6.73;;;2.90;;
19965;SDS011;10144;50.874;4.762;2022-12-07T14:26:03;6.37;;;2.67;;
19965;SDS011;10144;50.874;4.762;2022-12-07T14:28:34;7.97;;;2.90;;
19965;SDS011;10144;50.874;4.762;2022-12-07T14:31:01;11.50;;;3.50;;
19965;SDS011;10144;50.874;4.762;2022-12-07T14:33:27;8.70;;;2.90;;
19965;SDS011;10144;50.874;4.762;2022-12-07T14:35:53;12.40;;;3.30;;
19965;SDS011;10144;50.874;4.762;2022-12-07T14:38:24;9.27;;;3.00;;
19965;SDS011;10144;50.874;4.762;2022-12-07T14:40:51;10.63;;;3.17;;
19965;SDS011;10144;50.874;4.762;2022-12-07T14:43:18;11.67;;;2.80;;
19965;SDS011;10144;50.874;4.762;2022-12-07T14:45:44;9.90;;;2.80;;
19965;SDS011;10144;50.874;4.762;2022-12-07T14:48:11;8.57;;;2.93;;
19965;SDS011;10144;50.874;4.762;2022-12-07T14:50:39;9.17;;;3.60;;
19965;SDS011;10144;50.874;4.762;2022-12-07T14:53:13;13.90;;;4.20;;
19965;SDS011;10144;50.874;4.762;2022-12-07T14:55:41;12.33;;;4.83;;
19965;SDS011;10144;50.874;4.762;2022-12-07T14:58:11;10.63;;;4.57;;
19965;SDS011;10144;50.874;4.762;2022-12-07T15:00:40;8.97;;;4.77;;
19965;SDS011;10144;50.874;4.762;2022-12-07T15:03:06;10.93;;;4.43;;
19965;SDS011;10144;50.874;4.762;2022-12-07T15:05:32;6.33;;;3.50;;
19965;SDS011;10144;50.874;4.762;2022-12-07T15:07:58;7.77;;;3.53;;
19965;SDS011;10144;50.874;4.762;2022-12-07T15:10:25;10.07;;;4.40;;
19965;SDS011;10144;50.874;4.762;2022-12-07T15:13:00;13.67;;;5.60;;
19965;SDS011;10144;50.874;4.762;2022-12-07T15:15:46;10.50;;;5.10;;
19965;SDS011;10144;50.874;4.762;2022-12-07T15:18:12;11.13;;;5.10;;
19965;SDS011;10144;50.874;4.762;2022-12-07T15:20:38;11.87;;;4.90;;
19965;SDS011;10144;50.874;4.762;2022-12-07T15:23:04;9.77;;;4.90;;
19965;SDS011;10144;50.874;4.762;2022-12-07T15:25:30;9.50;;;4.10;;
19965;SDS011;10144;50.874;4.762;2022-12-07T15:30:26;7.57;;;4.00;;
19965;SDS011;10144;50.874;4.762;2022-12-07T15:32:51;9.27;;;4.57;;
19965;SDS011;10144;50.874;4.762;2022-12-07T15:35:17;12.23;;;4.30;;
19965;SDS011;10144;50.874;4.762;2022-12-07T15:37:44;9.07;;;4.03;;
19965;SDS011;10144;50.874;4.762;2022-12-07T15:40:10;8.90;;;4.30;;
19965;SDS011;10144;50.874;4.762;2022-12-07T15:42:36;9.90;;;4.80;;
19965;SDS011;10144;50.874;4.762;2022-12-07T15:45:02;9.53;;;4.37;;
19965;SDS011;10144;50.874;4.762;2022-12-07T15:47:29;9.87;;;4.80;;
19965;SDS011;10144;50.874;4.762;2022-12-07T15:50:06;10.57;;;4.63;;
19965;SDS011;10144;50.874;4.762;2022-12-07T15:52:34;16.37;;;4.70;;
19965;SDS011;10144;50.874;4.762;2022-12-07T15:54:59;14.67;;;5.00;;
19965;SDS011;10144;50.874;4.762;2022-12-07T15:57:27;9.00;;;4.63;;
19965;SDS011;10144;50.874;4.762;2022-12-07T15:59:53;9.03;;;4.67;;
19965;SDS011;10144;50.874;4.762;2022-12-07T16:02:18;11.00;;;5.30;;
19965;SDS011;10144;50.874;4.762;2022-12-07T16:04:44;10.90;;;5.47;;
19965;SDS011;10144;50.874;4.762;2022-12-07T16:07:11;13.97;;;5.73;;
19965;SDS011;10144;50.874;4.762;2022-12-07T16:09:37;15.23;;;5.73;;
19965;SDS011;10144;50.874;4.762;2022-12-07T16:12:03;14.00;;;6.47;;
19965;SDS011;10144;50.874;4.762;2022-12-07T16:14:28;13.67;;;6.30;;
19965;SDS011;10144;50.874;4.762;2022-12-07T16:16:54;12.23;;;5.63;;
19965;SDS011;10144;50.874;4.762;2022-12-07T16:19:20;15.53;;;6.60;;
19965;SDS011;10144;50.874;4.762;2022-12-07T16:21:46;16.90;;;6.13;;
19965;SDS011;10144;50.874;4.762;2022-12-07T16:24:11;15.83;;;6.70;;
19965;SDS011;10144;50.874;4.762;2022-12-07T16:26:39;25.83;;;6.10;;
19965;SDS011;10144;50.874;4.762;2022-12-07T16:29:05;20.27;;;6.70;;
19965;SDS011;10144;50.874;4.762;2022-12-07T16:31:31;18.83;;;6.57;;
19965;SDS011;10144;50.874;4.762;2022-12-07T16:33:57;17.30;;;7.30;;
19965;SDS011;10144;50.874;4.762;2022-12-07T16:36:24;18.10;;;7.10;;
19965;SDS011;10144;50.874;4.762;2022-12-07T16:38:51;18.00;;;7.30;;
19965;SDS011;10144;50.874;4.762;2022-12-07T16:41:17;15.07;;;6.67;;
19965;SDS011;10144;50.874;4.762;2022-12-07T16:43:43;18.40;;;5.60;;
19965;SDS011;10144;50.874;4.762;2022-12-07T16:46:09;19.93;;;5.87;;
19965;SDS011;10144;50.874;4.762;2022-12-07T16:48:35;16.13;;;6.27;;
19965;SDS011;10144;50.874;4.762;2022-12-07T16:51:03;16.00;;;6.10;;
19965;SDS011;10144;50.874;4.762;2022-12-07T16:53:36;16.27;;;6.13;;
19965;SDS011;10144;50.874;4.762;2022-12-07T16:56:03;14.43;;;6.00;;
19965;SDS011;10144;50.874;4.762;2022-12-07T16:58:28;17.97;;;6.27;;
19965;SDS011;10144;50.874;4.762;2022-12-07T17:00:55;14.17;;;5.17;;
19965;SDS011;10144;50.874;4.762;2022-12-07T17:03:21;19.23;;;5.80;;
19965;SDS011;10144;50.874;4.762;2022-12-07T17:05:46;14.67;;;5.30;;
19965;SDS011;10144;50.874;4.762;2022-12-07T17:08:13;12.10;;;5.20;;
19965;SDS011;10144;50.874;4.762;2022-12-07T17:10:40;13.63;;;5.03;;
19965;SDS011;10144;50.874;4.762;2022-12-07T17:13:07;17.47;;;5.97;;
19965;SDS011;10144;50.874;4.762;2022-12-07T17:15:56;21.77;;;5.67;;
19965;SDS011;10144;50.874;4.762;2022-12-07T17:18:30;22.23;;;8.30;;
19965;SDS011;10144;50.874;4.762;2022-12-07T17:21:03;16.60;;;7.33;;
19965;SDS011;10144;50.874;4.762;2022-12-07T17:23:31;17.43;;;6.23;;
19965;SDS011;10144;50.874;4.762;2022-12-07T17:26:03;14.20;;;5.53;;
19965;SDS011;10144;50.874;4.762;2022-12-07T17:28:33;12.57;;;4.97;;
19965;SDS011;10144;50.874;4.762;2022-12-07T17:31:00;15.63;;;4.67;;
19965;SDS011;10144;50.874;4.762;2022-12-07T17:33:29;12.50;;;4.40;;
19965;SDS011;10144;50.874;4.762;2022-12-07T17:35:55;10.47;;;3.83;;
19965;SDS011;10144;50.874;4.762;2022-12-07T17:38:21;12.67;;;4.13;;
19965;SDS011;10144;50.874;4.762;2022-12-07T17:40:47;11.70;;;4.37;;
19965;SDS011;10144;50.874;4.762;2022-12-07T17:43:14;11.53;;;4.03;;
19965;SDS011;10144;50.874;4.762;2022-12-07T17:45:39;11.30;;;3.90;;
19965;SDS011;10144;50.874;4.762;2022-12-07T17:48:05;8.57;;;3.57;;
19965;SDS011;10144;50.874;4.762;2022-12-07T17:50:30;10.47;;;4.00;;
19965;SDS011;10144;50.874;4.762;2022-12-07T17:53:15;7.40;;;3.67;;
19965;SDS011;10144;50.874;4.762;2022-12-07T17:55:40;11.67;;;3.80;;
19965;SDS011;10144;50.874;4.762;2022-12-07T17:58:06;10.93;;;3.67;;
19965;SDS011;10144;50.874;4.762;2022-12-07T18:00:32;12.67;;;4.37;;
19965;SDS011;10144;50.874;4.762;2022-12-07T18:03:03;12.03;;;4.30;;
19965;SDS011;10144;50.874;4.762;2022-12-07T18:05:32;13.33;;;4.77;;
19965;SDS011;10144;50.874;4.762;2022-12-07T18:07:57;13.67;;;4.70;;
19965;SDS011;10144;50.874;4.762;2022-12-07T18:10:23;16.63;;;5.30;;
19965;SDS011;10144;50.874;4.762;2022-12-07T18:12:48;11.57;;;4.77;;
19965;SDS011;10144;50.874;4.762;2022-12-07T18:15:14;14.73;;;5.70;;
19965;SDS011;10144;50.874;4.762;2022-12-07T18:17:40;15.60;;;5.07;;
19965;SDS011;10144;50.874;4.762;2022-12-07T18:20:06;12.17;;;5.30;;
19965;SDS011;10144;50.874;4.762;2022-12-07T18:22:32;19.87;;;6.20;;
19965;SDS011;10144;50.874;4.762;2022-12-07T18:24:59;18.23;;;5.30;;
19965;SDS011;10144;50.874;4.762;2022-12-07T18:27:27;14.77;;;6.20;;
19965;SDS011;10144;50.874;4.762;2022-12-07T18:29:52;18.17;;;6.53;;
19965;SDS011;10144;50.874;4.762;2022-12-07T18:32:19;20.77;;;6.77;;
19965;SDS011;10144;50.874;4.762;2022-12-07T18:34:45;19.40;;;6.40;;
19965;SDS011;10144;50.874;4.762;2022-12-07T18:37:10;15.67;;;6.30;;
19965;SDS011;10144;50.874;4.762;2022-12-07T18:39:36;16.63;;;6.63;;
19965;SDS011;10144;50.874;4.762;2022-12-07T18:42:01;23.20;;;7.40;;
19965;SDS011;10144;50.874;4.762;2022-12-07T18:44:27;13.57;;;5.93;;
19965;SDS011;10144;50.874;4.762;2022-12-07T18:46:53;19.97;;;6.80;;
19965;SDS011;10144;50.874;4.762;2022-12-07T18:49:19;19.27;;;6.73;;
19965;SDS011;10144;50.874;4.762;2022-12-07T18:51:45;18.50;;;7.30;;
19965;SDS011;10144;50.874;4.762;2022-12-07T18:54:12;20.70;;;7.90;;
19965;SDS011;10144;50.874;4.762;2022-12-07T18:56:37;22.40;;;8.70;;
19965;SDS011;10144;50.874;4.762;2022-12-07T18:59:03;29.17;;;8.57;;
19965;SDS011;10144;50.874;4.762;2022-12-07T19:01:50;26.73;;;10.00;;
19965;SDS011;10144;50.874;4.762;2022-12-07T19:04:17;31.97;;;9.43;;
19965;SDS011;10144;50.874;4.762;2022-12-07T19:06:44;30.83;;;11.13;;
19965;SDS011;10144;50.874;4.762;2022-12-07T19:09:10;26.63;;;10.50;;
19965;SDS011;10144;50.874;4.762;2022-12-07T19:11:37;24.37;;;10.43;;
19965;SDS011;10144;50.874;4.762;2022-12-07T19:16:47;28.07;;;10.90;;
19965;SDS011;10144;50.874;4.762;2022-12-07T19:19:17;37.47;;;12.33;;
19965;SDS011;10144;50.874;4.762;2022-12-07T19:21:44;28.20;;;11.83;;
19965;SDS011;10144;50.874;4.762;2022-12-07T19:24:11;33.47;;;12.67;;
19965;SDS011;10144;50.874;4.762;2022-12-07T19:26:36;28.30;;;12.57;;
19965;SDS011;10144;50.874;4.762;2022-12-07T19:29:02;32.47;;;12.67;;
19965;SDS011;10144;50.874;4.762;2022-12-07T19:31:27;31.60;;;12.90;;
19965;SDS011;10144;50.874;4.762;2022-12-07T19:33:53;37.30;;;13.33;;
19965;SDS011;10144;50.874;4.762;2022-12-07T19:36:19;29.47;;;13.20;;
19965;SDS011;10144;50.874;4.762;2022-12-07T19:38:44;33.63;;;14.03;;
19965;SDS011;10144;50.874;4.762;2022-12-07T19:41:11;38.33;;;15.40;;
19965;SDS011;10144;50.874;4.762;2022-12-07T19:44:08;35.27;;;16.00;;
19965;SDS011;10144;50.874;4.762;2022-12-07T19:46:39;41.50;;;16.43;;
19965;SDS011;10144;50.874;4.762;2022-12-07T19:49:05;38.87;;;16.57;;
19965;SDS011;10144;50.874;4.762;2022-12-07T19:51:31;45.13;;;17.30;;
19965;SDS011;10144;50.874;4.762;2022-12-07T19:53:58;43.97;;;17.63;;
19965;SDS011;10144;50.874;4.762;2022-12-07T19:56:26;40.83;;;18.03;;
19965;SDS011;10144;50.874;4.762;2022-12-07T19:58:53;42.80;;;18.33;;
19965;SDS011;10144;50.874;4.762;2022-12-07T20:01:19;40.33;;;17.87;;
19965;SDS011;10144;50.874;4.762;2022-12-07T20:03:46;49.20;;;19.33;;
19965;SDS011;10144;50.874;4.762;2022-12-07T20:06:14;44.27;;;19.47;;
19965;SDS011;10144;50.874;4.762;2022-12-07T20:08:42;47.60;;;19.47;;
19965;SDS011;10144;50.874;4.762;2022-12-07T20:11:08;47.97;;;19.53;;
19965;SDS011;10144;50.874;4.762;2022-12-07T20:13:53;53.40;;;20.87;;
19965;SDS011;10144;50.874;4.762;2022-12-07T20:16:20;44.03;;;18.73;;
19965;SDS011;10144;50.874;4.762;2022-12-07T20:18:46;42.93;;;19.33;;
19965;SDS011;10144;50.874;4.762;2022-12-07T20:21:13;45.67;;;19.97;;
19965;SDS011;10144;50.874;4.762;2022-12-07T20:23:38;43.33;;;18.37;;
19965;SDS011;10144;50.874;4.762;2022-12-07T20:26:05;39.23;;;18.07;;
19965;SDS011;10144;50.874;4.762;2022-12-07T20:28:32;43.60;;;18.27;;
19965;SDS011;10144;50.874;4.762;2022-12-07T20:30:59;39.13;;;17.23;;
19965;SDS011;10144;50.874;4.762;2022-12-07T20:33:25;37.00;;;17.10;;
19965;SDS011;10144;50.874;4.762;2022-12-07T20:35:50;38.67;;;16.60;;
19965;SDS011;10144;50.874;4.762;2022-12-07T20:38:16;39.00;;;16.03;;
19965;SDS011;10144;50.874;4.762;2022-12-07T20:40:46;39.60;;;15.43;;
19965;SDS011;10144;50.874;4.762;2022-12-07T20:43:14;42.83;;;15.03;;
19965;SDS011;10144;50.874;4.762;2022-12-07T20:45:46;32.60;;;14.80;;
19965;SDS011;10144;50.874;4.762;2022-12-07T20:48:13;32.67;;;15.23;;
19965;SDS011;10144;50.874;4.762;2022-12-07T20:50:40;37.30;;;14.33;;
19965;SDS011;10144;50.874;4.762;2022-12-07T20:53:06;32.53;;;14.37;;
19965;SDS011;10144;50.874;4.762;2022-12-07T20:55:31;33.00;;;15.10;;
19965;SDS011;10144;50.874;4.762;2022-12-07T20:57:57;28.67;;;13.07;;
19965;SDS011;10144;50.874;4.762;2022-12-07T21:00:23;36.10;;;15.10;;
19965;SDS011;10144;50.874;4.762;2022-12-07T21:02:49;29.53;;;13.13;;
19965;SDS011;10144;50.874;4.762;2022-12-07T21:05:16;35.10;;;13.73;;
19965;SDS011;10144;50.874;4.762;2022-12-07T21:07:42;30.23;;;13.70;;
19965;SDS011;10144;50.874;4.762;2022-12-07T21:10:08;29.73;;;13.30;;
19965;SDS011;10144;50.874;4.762;2022-12-07T21:12:34;31.63;;;13.23;;
19965;SDS011;10144;50.874;4.762;2022-12-07T21:15:00;28.67;;;12.83;;
19965;SDS011;10144;50.874;4.762;2022-12-07T21:17:25;31.37;;;12.50;;
19965;SDS011;10144;50.874;4.762;2022-12-07T21:19:51;28.07;;;12.03;;
19965;SDS011;10144;50.874;4.762;2022-12-07T21:22:17;25.03;;;11.47;;
19965;SDS011;10144;50.874;4.762;2022-12-07T21:24:42;29.50;;;12.20;;
19965;SDS011;10144;50.874;4.762;2022-12-07T21:27:08;26.57;;;10.73;;
19965;SDS011;10144;50.874;4.762;2022-12-07T21:29:34;32.27;;;11.23;;
19965;SDS011;10144;50.874;4.762;2022-12-07T21:32:00;23.17;;;10.37;;
19965;SDS011;10144;50.874;4.762;2022-12-07T21:34:26;23.00;;;9.93;;
19965;SDS011;10144;50.874;4.762;2022-12-07T21:36:52;21.17;;;9.93;;
19965;SDS011;10144;50.874;4.762;2022-12-07T21:39:17;23.70;;;10.00;;
19965;SDS011;10144;50.874;4.762;2022-12-07T21:41:43;23.63;;;9.90;;
19965;SDS011;10144;50.874;4.762;2022-12-07T21:44:08;22.80;;;9.60;;
19965;SDS011;10144;50.874;4.762;2022-12-07T21:46:34;25.83;;;9.23;;
19965;SDS011;10144;50.874;4.762;2022-12-07T21:49:04;24.83;;;9.23;;
19965;SDS011;10144;50.874;4.762;2022-12-07T21:51:32;25.70;;;9.37;;
19965;SDS011;10144;50.874;4.762;2022-12-07T21:54:00;23.17;;;9.10;;
19965;SDS011;10144;50.874;4.762;2022-12-07T21:56:30;25.77;;;9.57;;
19965;SDS011;10144;50.874;4.762;2022-12-07T21:59:02;20.23;;;8.80;;
19965;SDS011;10144;50.874;4.762;2022-12-07T22:01:32;18.83;;;8.50;;
19965;SDS011;10144;50.874;4.762;2022-12-07T22:04:12;24.20;;;9.10;;
19965;SDS011;10144;50.874;4.762;2022-12-07T22:06:47;24.73;;;8.93;;
19965;SDS011;10144;50.874;4.762;2022-12-07T22:09:13;20.17;;;8.70;;
19965;SDS011;10144;50.874;4.762;2022-12-07T22:11:40;20.83;;;8.50;;
19965;SDS011;10144;50.874;4.762;2022-12-07T22:14:08;21.60;;;7.90;;
19965;SDS011;10144;50.874;4.762;2022-12-07T22:16:58;21.97;;;8.57;;
19965;SDS011;10144;50.874;4.762;2022-12-07T22:19:27;18.97;;;8.23;;
19965;SDS011;10144;50.874;4.762;2022-12-07T22:21:54;19.37;;;8.03;;
19965;SDS011;10144;50.874;4.762;2022-12-07T22:24:26;17.87;;;7.93;;
19965;SDS011;10144;50.874;4.762;2022-12-07T22:26:57;18.03;;;7.60;;
19965;SDS011;10144;50.874;4.762;2022-12-07T22:29:29;22.50;;;8.10;;
19965;SDS011;10144;50.874;4.762;2022-12-07T22:31:59;18.23;;;7.43;;
19965;SDS011;10144;50.874;4.762;2022-12-07T22:34:31;16.33;;;8.07;;
19965;SDS011;10144;50.874;4.762;2022-12-07T22:36:57;14.93;;;7.50;;
19965;SDS011;10144;50.874;4.762;2022-12-07T22:39:29;17.97;;;7.63;;
19965;SDS011;10144;50.874;4.762;2022-12-07T22:41:57;12.77;;;6.30;;
19965;SDS011;10144;50.874;4.762;2022-12-07T22:44:22;14.70;;;5.67;;
19965;SDS011;10144;50.874;4.762;2022-12-07T22:46:50;15.03;;;5.97;;
19965;SDS011;10144;50.874;4.762;2022-12-07T22:49:18;13.77;;;6.10;;
19965;SDS011;10144;50.874;4.762;2022-12-07T22:51:44;9.20;;;4.40;;
19965;SDS011;10144;50.874;4.762;2022-12-07T22:54:13;10.30;;;4.20;;
19965;SDS011;10144;50.874;4.762;2022-12-07T22:56:44;11.77;;;4.10;;
19965;SDS011;10144;50.874;4.762;2022-12-07T23:01:44;11.53;;;3.37;;
19965;SDS011;10144;50.874;4.762;2022-12-07T23:06:38;6.93;;;3.10;;
19965;SDS011;10144;50.874;4.762;2022-12-07T23:09:09;7.30;;;3.50;;
19965;SDS011;10144;50.874;4.762;2022-12-07T23:11:38;8.23;;;3.33;;
19965;SDS011;10144;50.874;4.762;2022-12-07T23:14:30;9.33;;;3.30;;
19965;SDS011;10144;50.874;4.762;2022-12-07T23:17:03;9.70;;;3.83;;
19965;SDS011;10144;50.874;4.762;2022-12-07T23:19:35;10.80;;;4.07;;
19965;SDS011;10144;50.874;4.762;2022-12-07T23:22:01;11.53;;;4.23;;
19965;SDS011;10144;50.874;4.762;2022-12-07T23:24:29;9.97;;;4.40;;
19965;SDS011;10144;50.874;4.762;2022-12-07T23:26:58;13.20;;;4.33;;
19965;SDS011;10144;50.874;4.762;2022-12-07T23:29:24;14.70;;;4.90;;
19965;SDS011;10144;50.874;4.762;2022-12-07T23:31:54;12.27;;;4.90;;
19965;SDS011;10144;50.874;4.762;2022-12-07T23:34:26;12.27;;;5.47;;
19965;SDS011;10144;50.874;4.762;2022-12-07T23:36:53;16.90;;;6.70;;
19965;SDS011;10144;50.874;4.762;2022-12-07T23:42:02;18.57;;;7.10;;
19965;SDS011;10144;50.874;4.762;2022-12-07T23:44:31;22.67;;;7.87;;
19965;SDS011;10144;50.874;4.762;2022-12-07T23:46:58;18.87;;;7.80;;
19965;SDS011;10144;50.874;4.762;2022-12-07T23:49:26;22.03;;;8.17;;
19965;SDS011;10144;50.874;4.762;2022-12-07T23:51:57;20.67;;;8.00;;
19965;SDS011;10144;50.874;4.762;2022-12-07T23:56:54;28.93;;;11.40;;
19965;SDS011;10144;50.874;4.762;2022-12-07T23:59:26;26.20;;;10.60;;
